Flight Track Log - Related Links

Times and Time Zones

All times are in EDT time to prevent confusion due to time zone crossing. See the N865JM flight status page for this flight to view local times or setup timezone preferences in your user account.

Time Position Orientation Groundspeed Altitude Reporting Facility
EDT Latitude Longitude Course Direction KTS MPH feet Rate Location/Type
Sat 11:56:12 AM 26.7783 -79.9700 297° West 267 307 6,700  Level Miami Center
Sat 11:57:12 AM 26.8297 -80.0064 328° Northwest 261 300 9,400 2,500 Climbing Miami Center
Sat 11:58:12 AM 26.8403 -80.0975 277° West 260 299 11,700 2,600 Climbing Miami Center
Sat 11:59:12 AM 26.8503 -80.2094 276° West 319 367 14,600 2,850 Climbing Miami Center
Sat 12:00:00 PM 26.9741 -80.6858 297° West  Level Estimated
Sat 12:00:12 PM 26.8647 -80.3100 279° West 336 387 17,400  Level Miami Center
Sat 12:01:12 PM 26.9153 -80.3792 309° West 322 371 19,600 2,100 Climbing Miami Center
Sat 12:02:12 PM 26.9844 -80.4442 320° Northwest 315 362 21,600 2,000 Climbing Miami Center
Sat 12:03:12 PM 27.0558 -80.5117 320° Northwest 322 371 23,600 1,750 Climbing Miami Center
Sat 12:04:12 PM 27.1108 -80.5669 318° Northwest 328 377 25,100 1,700 Climbing Miami Center
Sat 12:05:12 PM 27.1986 -80.6514 319° Northwest 333 383 27,000 1,500 Climbing Miami Center
Sat 12:06:12 PM 27.2739 -80.7239 319° Northwest 340 391 28,100 1,100 Climbing Miami Center
Sat 12:07:12 PM 27.3553 -80.7992 321° Northwest 360 414 29,200 1,050 Climbing Miami Center
Sat 12:08:12 PM 27.4325 -80.8792 317° Northwest 371 427 30,200 1,000 Climbing Miami Center
Sat 12:09:12 PM 27.5139 -80.9569 320° Northwest 378 435 31,200 1,000 Climbing Miami Center
Sat 12:10:12 PM 27.5931 -81.0347 319° Northwest 378 435 32,200 1,041 Climbing Miami Center
Sat 12:11:13 PM 27.6742 -81.1150 319° Northwest 378 435 33,300 1,050 Climbing Miami Center
Sat 12:12:12 PM 27.7553 -81.1953 319° Northwest 383 441 34,300 1,059 Climbing Miami Center
Sat 12:13:12 PM 27.8364 -81.2711 320° Northwest 383 441 35,400 590 Climbing Miami Center
Sat 12:15:05 PM 27.9850 -81.4189 319° Northwest 374 430 36,000 209 Climbing Jacksonville Center
Sat 12:16:04 PM 28.0736 -81.5025 320° Northwest 374 430 36,000  Level Jacksonville Center
Sat 12:17:05 PM 28.1536 -81.5836 318° Northwest 374 430 36,000  Level Jacksonville Center
Sat 12:18:05 PM 28.2358 -81.6628 320° Northwest 379 436 36,000  Level Jacksonville Center
Sat 12:19:04 PM 28.3181 -81.7467 318° Northwest 384 442 36,000  Level Jacksonville Center
Sat 12:20:05 PM 28.3981 -81.8258 319° Northwest 389 448 36,000  Level Jacksonville Center
Sat 12:21:05 PM 28.4717 -81.9008 318° Northwest 396 456 36,000  Level Jacksonville Center
Sat 12:22:04 PM 28.5453 -81.9944 312° West 391 450 36,000  Level Jacksonville Center
Sat 12:23:05 PM 28.5878 -82.1075 293° West 385 443 36,000  Level Jacksonville Center
Sat 12:24:05 PM 28.6322 -82.2231 294° West 390 449 36,000  Level Jacksonville Center
Sat 12:25:05 PM 28.6747 -82.3389 293° West 395 455 36,000  Level Jacksonville Center
Sat 12:26:05 PM 28.7189 -82.4664 292° West 395 455 36,000  Level Jacksonville Center
Sat 12:27:05 PM 28.7589 -82.5822 292° West 395 455 36,000  Level Jacksonville Center
Sat 12:28:04 PM 28.8031 -82.6958 294° West 390 449 36,000  Level Jacksonville Center
Sat 12:29:05 PM 28.8447 -82.8119 292° West 390 449 36,000  Level Jacksonville Center
Sat 12:30:05 PM 28.8908 -82.9281 294° West 390 449 36,000  Level Jacksonville Center
Sat 12:31:05 PM 28.9325 -83.0419 293° West 390 449 36,000  Level Jacksonville Center
Sat 12:32:05 PM 28.9781 -83.1583 294° West 390 449 36,000  Level Jacksonville Center
Sat 12:33:05 PM 29.0156 -83.2606 293° West 395 455 36,000  Level Jacksonville Center
Sat 12:34:05 PM 29.0589 -83.3772 293° West 395 455 36,000  Level Jacksonville Center
Sat 12:35:04 PM 29.1022 -83.4939 293° West 395 455 36,000  Level Jacksonville Center
Sat 12:36:05 PM 29.1475 -83.6106 294° West 395 455 36,000  Level Jacksonville Center
Sat 12:37:05 PM 29.1908 -83.7228 294° West 395 455 36,000  Level Jacksonville Center
Sat 12:38:05 PM 29.2339 -83.8397 293° West 395 455 36,000  Level Jacksonville Center
Sat 12:39:04 PM 29.2767 -83.9567 293° West 395 455 36,000  Level Jacksonville Center
Sat 12:40:05 PM 29.3194 -84.0717 293° West 395 455 36,000  Level Jacksonville Center
Sat 12:41:04 PM 29.3622 -84.1889 293° West 395 455 36,000  Level Jacksonville Center
Sat 12:42:04 PM 29.4028 -84.3039 292° West 395 455 36,000  Level Jacksonville Center
Sat 12:43:05 PM 29.4453 -84.4211 293° West 395 455 36,000  Level Jacksonville Center
Sat 12:44:05 PM 29.4897 -84.5364 294° West 395 455 36,000  Level Jacksonville Center
Sat 12:45:05 PM 29.5342 -84.6542 293° West 395 455 36,000  Level Jacksonville Center
Sat 12:46:04 PM 29.5764 -84.7719 292° West 395 455 36,000  Level Jacksonville Center
Sat 12:47:05 PM 29.6164 -84.8872 292° West 395 455 36,000  Level Jacksonville Center
Sat 12:48:05 PM 29.6603 -85.0031 294° West 395 455 36,000  Level Jacksonville Center
Sat 12:49:05 PM 29.6981 -85.1161 291° West 395 455 36,000  Level Jacksonville Center
Sat 12:50:05 PM 29.7419 -85.2344 293° West 395 455 36,000  Level Jacksonville Center
Sat 12:51:05 PM 29.7836 -85.3503 293° West 395 455 36,000  Level Jacksonville Center
Sat 12:52:05 PM 29.8250 -85.4686 292° West 395 455 36,000  Level Jacksonville Center
Sat 12:53:05 PM 29.8683 -85.5942 292° West 395 455 36,000  Level Jacksonville Center
Sat 12:54:05 PM 29.9094 -85.7175 291° West 401 461 36,000  Level Jacksonville Center
Sat 12:55:05 PM 29.9528 -85.8339 293° West 401 461 36,000  Level Jacksonville Center
Sat 12:56:05 PM 29.9939 -85.9478 293° West 394 453 36,000  Level Jacksonville Center
Sat 12:57:04 PM 30.0372 -86.0644 293° West 394 453 36,000  Level Jacksonville Center
Sat 12:58:04 PM 30.0758 -86.1808 291° West 394 453 36,000  Level Jacksonville Center
Sat 12:59:05 PM 30.1186 -86.3000 293° West 394 453 36,000  Level Jacksonville Center
Sat 01:00:05 PM 30.1572 -86.4167 291° West 394 453 36,000  Level Jacksonville Center
Sat 01:01:05 PM 30.2000 -86.5336 293° West 394 453 36,000  Level Jacksonville Center
Sat 01:02:05 PM 30.2406 -86.6481 292° West 394 453 36,000  Level Jacksonville Center
Sat 01:03:05 PM 30.2786 -86.7650 291° West 394 453 36,000  Level Jacksonville Center
Sat 01:04:05 PM 30.3189 -86.8819 292° West 394 453 36,000  Level Jacksonville Center
Sat 01:05:05 PM 30.3553 -86.9847 292° West 394 453 36,000  Level Jacksonville Center
Sat 01:06:05 PM 30.3931 -87.1042 290° West 394 453 36,000  Level Jacksonville Center
Sat 01:07:05 PM 30.4331 -87.2192 292° West 394 453 36,000  Level Jacksonville Center
Sat 01:08:05 PM 30.4728 -87.3414 291° West 394 453 36,000  Level Jacksonville Center
Sat 01:09:41 PM 30.5372 -87.5303 292° West 394 453 36,000  Level Houston Center
Sat 01:10:43 PM 30.5758 -87.6489 291° West 394 453 36,000  Level Houston Center
Sat 01:11:44 PM 30.6147 -87.7667 291° West 393 452 36,000  Level Houston Center
Sat 01:12:46 PM 30.6547 -87.8847 292° West 392 451 36,000 -290 Level Houston Center
Sat 01:13:48 PM 30.6972 -88.0200 290° West 393 452 35,400 -871 Descending Houston Center
Sat 01:14:50 PM 30.7367 -88.1383 291° West 394 453 34,200 -677 Descending Houston Center
Sat 01:15:52 PM 30.7742 -88.2558 290° West 390 449 34,000 -98 Descending Houston Center
Sat 01:16:53 PM 30.8136 -88.3736 291° West 393 452 34,000  Level Houston Center
Sat 01:17:55 PM 30.8597 -88.5158 291° West 393 452 34,000  Level Houston Center
Sat 01:18:57 PM 30.8953 -88.6264 291° West 392 451 34,000  Level Houston Center
Sat 01:19:59 PM 30.9342 -88.7467 291° West 395 455 34,000  Level Houston Center
Sat 01:21:00 PM 30.9722 -88.8667 290° West 397 457 34,000  Level Houston Center
Sat 01:22:02 PM 31.0136 -88.9906 291° West 397 457 34,000  Level Houston Center
Sat 01:23:04 PM 31.0511 -89.1086 290° West 392 451 34,000  Level Houston Center
Sat 01:24:06 PM 31.0975 -89.2525 291° West 397 457 34,000  Level Houston Center
Sat 01:25:07 PM 31.1358 -89.3719 291° West 396 456 34,000  Level Houston Center
Sat 01:26:09 PM 31.1731 -89.4894 290° West 390 449 34,000  Level Houston Center
Sat 01:27:11 PM 31.2106 -89.6086 290° West 392 451 34,000  Level Houston Center
Sat 01:28:13 PM 31.2475 -89.7275 290° West 391 450 34,000  Level Houston Center
Sat 01:29:14 PM 31.2844 -89.8472 290° West 393 452 34,000  Level Houston Center
Sat 01:30:16 PM 31.3286 -89.9892 290° West 390 449 34,000  Level Houston Center
Sat 01:31:18 PM 31.3650 -90.1078 290° West 389 448 34,000  Level Houston Center
Sat 01:32:19 PM 31.4022 -90.2275 290° West 391 450 34,000  Level Houston Center
Sat 01:33:21 PM 31.4394 -90.3464 290° West 391 450 34,000  Level Houston Center
Sat 01:34:23 PM 31.4753 -90.4658 289° West 391 450 34,000  Level Houston Center
Sat 01:35:24 PM 31.5114 -90.5853 290° West 391 450 34,000  Level Houston Center
Sat 01:36:26 PM 31.5492 -90.7064 290° West 394 453 34,000  Level Houston Center
Sat 01:37:28 PM 31.5922 -90.8506 289° West 392 451 34,000  Level Houston Center
Sat 01:38:29 PM 31.6289 -90.9706 290° West 393 452 34,000  Level Houston Center
Sat 01:39:31 PM 31.6647 -91.0919 289° West 395 455 34,000  Level Houston Center
Sat 01:40:33 PM 31.7031 -91.2228 289° West 390 449 34,000  Level Houston Center
Sat 01:41:34 PM 31.7397 -91.3444 290° West 395 455 34,000  Level Houston Center
Sat 01:42:36 PM 31.7750 -91.4642 289° West 391 450 34,000  Level Houston Center
Sat 01:43:38 PM 31.8103 -91.5839 289° West 391 450 34,000 -390 Level Houston Center
Sat 01:44:39 PM 31.8464 -91.7044 289° West 392 451 33,200 -1,463 Descending Houston Center
Sat 01:45:41 PM 31.8811 -91.8267 289° West 394 453 31,000 -2,049 Descending Houston Center
Sat 01:46:42 PM 31.9172 -91.9453 290° West 390 449 29,000 -1,951 Descending Houston Center
Sat 01:47:44 PM 31.9567 -92.0861 288° West 382 440 27,000 -1,805 Descending Houston Center
Sat 01:48:45 PM 31.9917 -92.2036 289° West 381 438 25,300 -1,659 Descending Houston Center
Sat 01:49:47 PM 32.0244 -92.3233 288° West 384 442 23,600 -1,645 Descending Houston Center
Sat 01:50:49 PM 32.0589 -92.4431 289° West 389 448 21,900 -1,659 Descending Houston Center
Sat 01:51:50 PM 32.0933 -92.5631 289° West 389 448 20,200 -1,659 Descending Houston Center
Sat 01:52:52 PM 32.1264 -92.6781 289° West 379 436 18,500 -1,610 Descending Houston Center
Sat 01:53:53 PM 32.1572 -92.7856 289° West 363 418 16,900 -1,951 Descending Houston Center
Sat 01:54:55 PM 32.1931 -92.9153 288° West 352 405 14,500 -1,854 Descending Houston Center
Sat 01:55:56 PM 32.2222 -93.0169 289° West 337 388 13,100 -1,073 Descending Houston Center
Sat 01:56:58 PM 32.2483 -93.1092 289° West 305 351 12,300 -1,268 Descending Houston Center
Sat 01:57:59 PM 32.2731 -93.1997 288° West 296 341 10,500 -1,512 Descending Houston Center
Sat 01:59:01 PM 32.3222 -93.2750 308° West 292 336 9,200 -1,597 Descending Houston Center
Sat 02:00:03 PM 32.3489 -93.3544 292° West 268 308 7,200 -2,049 Descending Houston Center
Sat 02:01:04 PM 32.3797 -93.4386 293° West 273 314 5,000 -1,073 Descending Houston Center
Sat 02:02:06 PM 32.4381 -93.5050 316° Northwest 251 289 5,000  Level Houston Center
Sat 02:03:08 PM 32.4886 -93.5689 313° West 247 284 5,000  Level Fort Worth Center
Sat 02:03:21 PM 32.4956 -93.5833 300° West 247 284 5,000  Level Fort Worth Center
Sat 02:04:08 PM 32.4822 -93.6283 251° West 201 231 5,000  Level Fort Worth Center
Sat 02:04:15 PM 32.4719 -93.6336 203° Southwest 224 258 5,000 -300 Level Fort Worth Center
Sat 02:05:08 PM 32.4244 -93.6503 196° South 176 203 4,700 -492 Descending Fort Worth Center
Sat 02:05:16 PM 32.4081 -93.6583 203° Southwest 237 273 4,500 -1,700 Descending Fort Worth Center
Sat 02:06:08 PM 32.3603 -93.6753 197° South 205 236 3,000 -1,800 Descending Fort Worth Center
Sat 02:06:16 PM 32.3500 -93.6806 203° Southwest 215 247 2,700 -1,000 Descending Fort Worth Center
Sat 02:07:08 PM 32.3258 -93.7086 224° Southwest 200 230 2,000 -689 Descending Fort Worth Center
Sat 02:07:17 PM 32.3283 -93.7233 281° West 180 207 2,000 -100 Level Fort Worth Center
Sat 02:08:08 PM 32.3650 -93.7561 323° Northwest 120 138 1,900 -197 Descending Fort Worth Center
Sat 02:08:18 PM 32.3692 -93.7633 304° West 200 230 1,800 -800 Descending Fort Worth Center
Sat 02:09:08 PM 32.3992 -93.7867 327° Northwest 158 182 1,100 -900 Descending Fort Worth Center
Sat 02:09:18 PM 32.4058 -93.7964 309° West 145 167 900 -1,200 Descending Fort Worth Center

Login

Don't have an account? Register now (free) for customized features, flight alerts, and more!